sensor_id;sensor_type;location;lat;lon;timestamp;P1;durP1;ratioP1;P2;durP2;ratioP2
37349;SDS011;23231;52.358;4.926;2023-04-24T00:02:30;5.18;;;2.92;;
37349;SDS011;23231;52.358;4.926;2023-04-24T00:07:31;4.43;;;2.30;;
37349;SDS011;23231;52.358;4.926;2023-04-24T00:12:32;5.45;;;3.05;;
37349;SDS011;23231;52.358;4.926;2023-04-24T00:17:32;5.68;;;3.65;;
37349;SDS011;23231;52.358;4.926;2023-04-24T00:22:32;7.00;;;3.53;;
37349;SDS011;23231;52.358;4.926;2023-04-24T00:27:33;5.32;;;3.20;;
37349;SDS011;23231;52.358;4.926;2023-04-24T00:32:35;5.18;;;2.47;;
37349;SDS011;23231;52.358;4.926;2023-04-24T00:37:35;4.50;;;1.83;;
37349;SDS011;23231;52.358;4.926;2023-04-24T00:42:36;5.25;;;1.90;;
37349;SDS011;23231;52.358;4.926;2023-04-24T00:47:36;6.72;;;3.20;;
37349;SDS011;23231;52.358;4.926;2023-04-24T00:52:36;7.57;;;3.70;;
37349;SDS011;23231;52.358;4.926;2023-04-24T00:57:37;12.15;;;6.38;;
37349;SDS011;23231;52.358;4.926;2023-04-24T01:02:39;19.90;;;9.27;;
37349;SDS011;23231;52.358;4.926;2023-04-24T01:07:44;13.43;;;6.50;;
37349;SDS011;23231;52.358;4.926;2023-04-24T01:12:45;8.68;;;4.25;;
37349;SDS011;23231;52.358;4.926;2023-04-24T01:17:46;5.18;;;2.35;;
37349;SDS011;23231;52.358;4.926;2023-04-24T01:22:46;5.72;;;2.53;;
37349;SDS011;23231;52.358;4.926;2023-04-24T01:27:47;2.95;;;1.48;;
37349;SDS011;23231;52.358;4.926;2023-04-24T01:32:47;3.53;;;1.40;;
37349;SDS011;23231;52.358;4.926;2023-04-24T01:37:48;2.38;;;1.30;;
37349;SDS011;23231;52.358;4.926;2023-04-24T01:42:48;4.03;;;1.00;;
37349;SDS011;23231;52.358;4.926;2023-04-24T01:47:49;4.70;;;1.50;;
37349;SDS011;23231;52.358;4.926;2023-04-24T01:52:50;3.17;;;1.63;;
37349;SDS011;23231;52.358;4.926;2023-04-24T01:57:51;2.75;;;1.10;;
37349;SDS011;23231;52.358;4.926;2023-04-24T02:02:52;4.72;;;1.25;;
37349;SDS011;23231;52.358;4.926;2023-04-24T02:07:52;3.58;;;1.17;;
37349;SDS011;23231;52.358;4.926;2023-04-24T02:12:53;2.70;;;1.13;;
37349;SDS011;23231;52.358;4.926;2023-04-24T02:17:53;2.58;;;1.10;;
37349;SDS011;23231;52.358;4.926;2023-04-24T02:22:53;2.50;;;1.10;;
37349;SDS011;23231;52.358;4.926;2023-04-24T02:27:55;1.58;;;1.00;;
37349;SDS011;23231;52.358;4.926;2023-04-24T02:32:55;2.85;;;1.00;;
37349;SDS011;23231;52.358;4.926;2023-04-24T02:37:55;2.45;;;1.10;;
37349;SDS011;23231;52.358;4.926;2023-04-24T02:42:56;2.03;;;0.75;;
37349;SDS011;23231;52.358;4.926;2023-04-24T02:47:56;2.50;;;1.02;;
37349;SDS011;23231;52.358;4.926;2023-04-24T02:52:56;3.67;;;1.10;;
37349;SDS011;23231;52.358;4.926;2023-04-24T02:57:57;1.98;;;1.02;;
37349;SDS011;23231;52.358;4.926;2023-04-24T03:02:57;0.93;;;0.60;;
37349;SDS011;23231;52.358;4.926;2023-04-24T03:07:58;3.35;;;0.90;;
37349;SDS011;23231;52.358;4.926;2023-04-24T03:12:58;2.40;;;0.75;;
37349;SDS011;23231;52.358;4.926;2023-04-24T03:17:58;4.25;;;0.98;;
37349;SDS011;23231;52.358;4.926;2023-04-24T03:23:00;1.73;;;1.00;;
37349;SDS011;23231;52.358;4.926;2023-04-24T03:28:00;0.68;;;0.40;;
37349;SDS011;23231;52.358;4.926;2023-04-24T03:33:01;3.13;;;1.20;;
37349;SDS011;23231;52.358;4.926;2023-04-24T03:38:01;3.88;;;0.80;;
37349;SDS011;23231;52.358;4.926;2023-04-24T03:43:04;1.98;;;0.80;;
37349;SDS011;23231;52.358;4.926;2023-04-24T03:48:04;1.98;;;0.88;;
37349;SDS011;23231;52.358;4.926;2023-04-24T03:53:04;2.10;;;0.90;;
37349;SDS011;23231;52.358;4.926;2023-04-24T03:58:05;1.35;;;0.70;;
37349;SDS011;23231;52.358;4.926;2023-04-24T04:03:06;2.30;;;0.95;;
37349;SDS011;23231;52.358;4.926;2023-04-24T04:08:06;2.50;;;1.02;;
37349;SDS011;23231;52.358;4.926;2023-04-24T04:13:06;3.38;;;0.77;;
37349;SDS011;23231;52.358;4.926;2023-04-24T04:18:07;2.90;;;0.90;;
37349;SDS011;23231;52.358;4.926;2023-04-24T04:23:08;1.58;;;0.80;;
37349;SDS011;23231;52.358;4.926;2023-04-24T04:28:08;1.40;;;0.75;;
37349;SDS011;23231;52.358;4.926;2023-04-24T04:33:09;1.27;;;0.75;;
37349;SDS011;23231;52.358;4.926;2023-04-24T04:38:10;1.63;;;0.60;;
37349;SDS011;23231;52.358;4.926;2023-04-24T04:43:11;2.53;;;0.80;;
37349;SDS011;23231;52.358;4.926;2023-04-24T04:48:13;1.33;;;0.70;;
37349;SDS011;23231;52.358;4.926;2023-04-24T04:53:14;1.90;;;0.75;;
37349;SDS011;23231;52.358;4.926;2023-04-24T04:58:15;1.42;;;0.70;;
37349;SDS011;23231;52.358;4.926;2023-04-24T05:03:15;2.22;;;0.73;;
37349;SDS011;23231;52.358;4.926;2023-04-24T05:08:15;2.38;;;0.95;;
37349;SDS011;23231;52.358;4.926;2023-04-24T05:13:16;2.45;;;1.10;;
37349;SDS011;23231;52.358;4.926;2023-04-24T05:18:16;5.80;;;2.10;;
37349;SDS011;23231;52.358;4.926;2023-04-24T05:23:16;4.85;;;3.20;;
37349;SDS011;23231;52.358;4.926;2023-04-24T05:28:17;15.60;;;7.57;;
37349;SDS011;23231;52.358;4.926;2023-04-24T05:33:17;18.30;;;10.05;;
37349;SDS011;23231;52.358;4.926;2023-04-24T05:38:18;25.38;;;12.55;;
37349;SDS011;23231;52.358;4.926;2023-04-24T05:43:19;27.33;;;13.90;;
37349;SDS011;23231;52.358;4.926;2023-04-24T05:48:19;31.80;;;15.38;;
37349;SDS011;23231;52.358;4.926;2023-04-24T05:53:21;30.88;;;14.23;;
37349;SDS011;23231;52.358;4.926;2023-04-24T05:58:22;36.85;;;17.45;;
37349;SDS011;23231;52.358;4.926;2023-04-24T06:03:22;36.20;;;17.63;;
37349;SDS011;23231;52.358;4.926;2023-04-24T06:08:23;42.58;;;18.58;;
37349;SDS011;23231;52.358;4.926;2023-04-24T06:13:23;37.75;;;17.17;;
37349;SDS011;23231;52.358;4.926;2023-04-24T06:18:23;30.45;;;14.40;;
37349;SDS011;23231;52.358;4.926;2023-04-24T06:23:24;33.47;;;14.98;;
37349;SDS011;23231;52.358;4.926;2023-04-24T06:28:25;31.40;;;13.55;;
37349;SDS011;23231;52.358;4.926;2023-04-24T06:33:26;31.60;;;13.63;;
37349;SDS011;23231;52.358;4.926;2023-04-24T06:38:26;26.30;;;12.63;;
37349;SDS011;23231;52.358;4.926;2023-04-24T06:43:27;27.85;;;12.32;;
37349;SDS011;23231;52.358;4.926;2023-04-24T06:48:27;29.60;;;13.13;;
37349;SDS011;23231;52.358;4.926;2023-04-24T06:53:27;27.55;;;11.85;;
37349;SDS011;23231;52.358;4.926;2023-04-24T06:58:28;21.98;;;11.52;;
37349;SDS011;23231;52.358;4.926;2023-04-24T07:03:30;24.55;;;11.80;;
37349;SDS011;23231;52.358;4.926;2023-04-24T07:08:31;26.00;;;10.60;;
37349;SDS011;23231;52.358;4.926;2023-04-24T07:13:32;23.35;;;10.75;;
37349;SDS011;23231;52.358;4.926;2023-04-24T07:18:35;27.23;;;10.95;;
37349;SDS011;23231;52.358;4.926;2023-04-24T07:23:36;23.50;;;9.02;;
37349;SDS011;23231;52.358;4.926;2023-04-24T07:28:37;22.38;;;9.07;;
37349;SDS011;23231;52.358;4.926;2023-04-24T07:33:37;24.73;;;7.43;;
37349;SDS011;23231;52.358;4.926;2023-04-24T07:38:38;17.70;;;6.55;;
37349;SDS011;23231;52.358;4.926;2023-04-24T07:43:38;20.08;;;4.75;;
37349;SDS011;23231;52.358;4.926;2023-04-24T07:48:38;15.98;;;4.60;;
37349;SDS011;23231;52.358;4.926;2023-04-24T07:53:39;21.33;;;5.15;;
37349;SDS011;23231;52.358;4.926;2023-04-24T07:58:39;18.73;;;4.85;;
37349;SDS011;23231;52.358;4.926;2023-04-24T08:03:40;19.17;;;5.80;;
37349;SDS011;23231;52.358;4.926;2023-04-24T08:08:40;19.70;;;4.47;;
37349;SDS011;23231;52.358;4.926;2023-04-24T08:13:40;17.10;;;4.45;;
37349;SDS011;23231;52.358;4.926;2023-04-24T08:18:41;21.83;;;5.45;;
37349;SDS011;23231;52.358;4.926;2023-04-24T08:23:41;17.55;;;4.63;;
37349;SDS011;23231;52.358;4.926;2023-04-24T08:28:42;13.00;;;4.28;;
37349;SDS011;23231;52.358;4.926;2023-04-24T08:33:42;23.05;;;4.50;;
37349;SDS011;23231;52.358;4.926;2023-04-24T08:38:44;20.23;;;4.57;;
37349;SDS011;23231;52.358;4.926;2023-04-24T08:43:46;12.05;;;3.15;;
37349;SDS011;23231;52.358;4.926;2023-04-24T08:48:47;17.70;;;4.13;;
37349;SDS011;23231;52.358;4.926;2023-04-24T08:53:48;14.27;;;4.45;;
37349;SDS011;23231;52.358;4.926;2023-04-24T08:58:50;9.13;;;2.50;;
37349;SDS011;23231;52.358;4.926;2023-04-24T09:03:51;12.32;;;3.65;;
37349;SDS011;23231;52.358;4.926;2023-04-24T09:08:51;11.93;;;2.58;;
37349;SDS011;23231;52.358;4.926;2023-04-24T09:13:54;12.32;;;2.85;;
37349;SDS011;23231;52.358;4.926;2023-04-24T09:18:55;13.80;;;3.28;;
37349;SDS011;23231;52.358;4.926;2023-04-24T09:23:59;15.65;;;3.60;;
37349;SDS011;23231;52.358;4.926;2023-04-24T09:29:00;14.13;;;3.22;;
37349;SDS011;23231;52.358;4.926;2023-04-24T09:39:06;5.95;;;2.20;;
37349;SDS011;23231;52.358;4.926;2023-04-24T09:49:19;9.85;;;2.20;;
37349;SDS011;23231;52.358;4.926;2023-04-24T09:54:22;9.52;;;2.40;;
37349;SDS011;23231;52.358;4.926;2023-04-24T09:59:23;5.57;;;1.85;;
37349;SDS011;23231;52.358;4.926;2023-04-24T10:04:25;6.97;;;1.80;;
37349;SDS011;23231;52.358;4.926;2023-04-24T10:09:26;6.40;;;1.25;;
37349;SDS011;23231;52.358;4.926;2023-04-24T10:14:27;4.68;;;1.30;;
37349;SDS011;23231;52.358;4.926;2023-04-24T10:19:27;5.70;;;1.35;;
37349;SDS011;23231;52.358;4.926;2023-04-24T10:24:29;3.15;;;1.40;;
37349;SDS011;23231;52.358;4.926;2023-04-24T10:29:30;4.95;;;1.48;;
37349;SDS011;23231;52.358;4.926;2023-04-24T10:34:31;6.35;;;1.85;;
37349;SDS011;23231;52.358;4.926;2023-04-24T10:39:32;4.80;;;1.55;;
37349;SDS011;23231;52.358;4.926;2023-04-24T10:44:36;6.10;;;1.50;;
37349;SDS011;23231;52.358;4.926;2023-04-24T10:49:37;7.70;;;1.50;;
37349;SDS011;23231;52.358;4.926;2023-04-24T10:59:42;6.78;;;1.63;;
37349;SDS011;23231;52.358;4.926;2023-04-24T11:04:42;5.80;;;1.63;;
37349;SDS011;23231;52.358;4.926;2023-04-24T11:09:43;6.28;;;1.65;;
37349;SDS011;23231;52.358;4.926;2023-04-24T11:20:01;8.40;;;1.45;;
37349;SDS011;23231;52.358;4.926;2023-04-24T11:25:12;5.47;;;1.50;;
37349;SDS011;23231;52.358;4.926;2023-04-24T11:30:12;4.75;;;1.10;;
37349;SDS011;23231;52.358;4.926;2023-04-24T11:40:23;2.72;;;1.02;;
37349;SDS011;23231;52.358;4.926;2023-04-24T11:45:24;6.80;;;1.50;;
37349;SDS011;23231;52.358;4.926;2023-04-24T11:50:27;7.97;;;1.75;;
37349;SDS011;23231;52.358;4.926;2023-04-24T11:55:28;9.18;;;1.90;;
37349;SDS011;23231;52.358;4.926;2023-04-24T12:00:30;13.73;;;2.17;;
37349;SDS011;23231;52.358;4.926;2023-04-24T12:05:33;7.75;;;1.90;;
37349;SDS011;23231;52.358;4.926;2023-04-24T12:10:34;12.45;;;2.50;;
37349;SDS011;23231;52.358;4.926;2023-04-24T12:15:35;7.25;;;2.17;;
37349;SDS011;23231;52.358;4.926;2023-04-24T12:20:40;7.82;;;2.22;;
37349;SDS011;23231;52.358;4.926;2023-04-24T12:25:40;12.48;;;2.55;;
37349;SDS011;23231;52.358;4.926;2023-04-24T12:30:44;13.43;;;2.40;;
37349;SDS011;23231;52.358;4.926;2023-04-24T12:35:50;12.25;;;2.60;;
37349;SDS011;23231;52.358;4.926;2023-04-24T12:41:08;11.13;;;3.08;;
37349;SDS011;23231;52.358;4.926;2023-04-24T12:46:09;16.45;;;3.17;;
37349;SDS011;23231;52.358;4.926;2023-04-24T12:51:09;14.48;;;3.10;;
37349;SDS011;23231;52.358;4.926;2023-04-24T12:56:11;14.55;;;3.50;;
37349;SDS011;23231;52.358;4.926;2023-04-24T13:01:12;12.50;;;2.88;;
37349;SDS011;23231;52.358;4.926;2023-04-24T13:06:12;12.00;;;3.03;;
37349;SDS011;23231;52.358;4.926;2023-04-24T13:11:13;11.68;;;3.85;;
37349;SDS011;23231;52.358;4.926;2023-04-24T13:16:13;12.35;;;3.60;;
37349;SDS011;23231;52.358;4.926;2023-04-24T13:21:13;13.43;;;2.97;;
37349;SDS011;23231;52.358;4.926;2023-04-24T13:26:17;9.40;;;3.08;;
37349;SDS011;23231;52.358;4.926;2023-04-24T13:31:17;9.15;;;3.50;;
37349;SDS011;23231;52.358;4.926;2023-04-24T13:36:17;12.77;;;3.22;;
37349;SDS011;23231;52.358;4.926;2023-04-24T13:41:18;13.38;;;3.45;;
37349;SDS011;23231;52.358;4.926;2023-04-24T13:46:18;12.88;;;3.80;;
37349;SDS011;23231;52.358;4.926;2023-04-24T13:51:19;12.70;;;3.03;;
37349;SDS011;23231;52.358;4.926;2023-04-24T13:56:19;7.03;;;2.83;;
37349;SDS011;23231;52.358;4.926;2023-04-24T14:01:21;7.75;;;2.22;;
37349;SDS011;23231;52.358;4.926;2023-04-24T14:06:24;8.55;;;2.08;;
37349;SDS011;23231;52.358;4.926;2023-04-24T14:11:25;9.57;;;2.40;;
37349;SDS011;23231;52.358;4.926;2023-04-24T14:16:26;11.15;;;2.80;;
37349;SDS011;23231;52.358;4.926;2023-04-24T14:21:26;10.40;;;3.10;;
37349;SDS011;23231;52.358;4.926;2023-04-24T14:26:27;11.48;;;3.00;;
37349;SDS011;23231;52.358;4.926;2023-04-24T14:31:27;10.05;;;2.80;;
37349;SDS011;23231;52.358;4.926;2023-04-24T14:36:28;15.88;;;3.72;;
37349;SDS011;23231;52.358;4.926;2023-04-24T14:41:28;15.98;;;3.72;;
37349;SDS011;23231;52.358;4.926;2023-04-24T14:46:29;14.10;;;3.20;;
37349;SDS011;23231;52.358;4.926;2023-04-24T14:51:32;10.70;;;3.25;;
37349;SDS011;23231;52.358;4.926;2023-04-24T14:56:32;12.02;;;3.70;;
37349;SDS011;23231;52.358;4.926;2023-04-24T15:01:33;13.55;;;3.63;;
37349;SDS011;23231;52.358;4.926;2023-04-24T15:06:33;15.00;;;4.13;;
37349;SDS011;23231;52.358;4.926;2023-04-24T15:11:34;14.07;;;3.78;;
37349;SDS011;23231;52.358;4.926;2023-04-24T15:16:34;16.27;;;3.75;;
37349;SDS011;23231;52.358;4.926;2023-04-24T15:21:35;13.10;;;3.58;;
37349;SDS011;23231;52.358;4.926;2023-04-24T15:26:36;9.77;;;3.20;;
37349;SDS011;23231;52.358;4.926;2023-04-24T15:31:37;10.55;;;3.03;;
37349;SDS011;23231;52.358;4.926;2023-04-24T15:36:40;11.93;;;3.42;;
37349;SDS011;23231;52.358;4.926;2023-04-24T15:41:40;12.15;;;3.92;;
37349;SDS011;23231;52.358;4.926;2023-04-24T15:46:40;12.82;;;3.28;;
37349;SDS011;23231;52.358;4.926;2023-04-24T15:51:41;11.20;;;3.15;;
37349;SDS011;23231;52.358;4.926;2023-04-24T15:56:41;14.15;;;3.90;;
37349;SDS011;23231;52.358;4.926;2023-04-24T16:01:43;14.77;;;3.85;;
37349;SDS011;23231;52.358;4.926;2023-04-24T16:06:43;13.20;;;3.08;;
37349;SDS011;23231;52.358;4.926;2023-04-24T16:11:44;12.48;;;3.20;;
37349;SDS011;23231;52.358;4.926;2023-04-24T16:16:44;8.80;;;3.03;;
37349;SDS011;23231;52.358;4.926;2023-04-24T16:21:45;14.20;;;3.47;;
37349;SDS011;23231;52.358;4.926;2023-04-24T16:26:45;14.60;;;3.90;;
37349;SDS011;23231;52.358;4.926;2023-04-24T16:31:46;18.13;;;3.58;;
37349;SDS011;23231;52.358;4.926;2023-04-24T16:36:46;12.88;;;3.75;;
37349;SDS011;23231;52.358;4.926;2023-04-24T16:41:46;9.98;;;3.17;;
37349;SDS011;23231;52.358;4.926;2023-04-24T16:46:48;19.40;;;4.47;;
37349;SDS011;23231;52.358;4.926;2023-04-24T16:51:49;17.48;;;3.95;;
37349;SDS011;23231;52.358;4.926;2023-04-24T16:56:50;23.30;;;3.50;;
37349;SDS011;23231;52.358;4.926;2023-04-24T17:01:51;18.23;;;4.30;;
37349;SDS011;23231;52.358;4.926;2023-04-24T17:06:51;13.95;;;4.00;;
37349;SDS011;23231;52.358;4.926;2023-04-24T17:11:52;12.85;;;3.75;;
37349;SDS011;23231;52.358;4.926;2023-04-24T17:16:52;17.60;;;3.50;;
37349;SDS011;23231;52.358;4.926;2023-04-24T17:21:53;15.50;;;3.80;;
37349;SDS011;23231;52.358;4.926;2023-04-24T17:26:53;9.60;;;3.40;;
37349;SDS011;23231;52.358;4.926;2023-04-24T17:31:54;8.85;;;2.83;;
37349;SDS011;23231;52.358;4.926;2023-04-24T17:36:54;15.75;;;3.88;;
37349;SDS011;23231;52.358;4.926;2023-04-24T17:41:55;12.88;;;3.45;;
37349;SDS011;23231;52.358;4.926;2023-04-24T17:46:55;10.70;;;3.10;;
37349;SDS011;23231;52.358;4.926;2023-04-24T17:51:55;11.45;;;3.88;;
37349;SDS011;23231;52.358;4.926;2023-04-24T17:56:56;13.65;;;2.97;;
37349;SDS011;23231;52.358;4.926;2023-04-24T18:01:56;6.45;;;2.42;;
37349;SDS011;23231;52.358;4.926;2023-04-24T18:06:57;12.30;;;3.20;;
37349;SDS011;23231;52.358;4.926;2023-04-24T18:11:57;10.70;;;2.65;;
37349;SDS011;23231;52.358;4.926;2023-04-24T18:16:58;6.95;;;2.65;;
37349;SDS011;23231;52.358;4.926;2023-04-24T18:21:58;10.43;;;2.42;;
37349;SDS011;23231;52.358;4.926;2023-04-24T18:26:58;12.18;;;3.15;;
37349;SDS011;23231;52.358;4.926;2023-04-24T18:31:59;8.00;;;2.83;;
37349;SDS011;23231;52.358;4.926;2023-04-24T18:36:59;10.07;;;2.55;;
37349;SDS011;23231;52.358;4.926;2023-04-24T18:42:00;13.25;;;2.20;;
37349;SDS011;23231;52.358;4.926;2023-04-24T18:47:00;8.77;;;2.88;;
37349;SDS011;23231;52.358;4.926;2023-04-24T18:52:01;11.75;;;3.05;;
37349;SDS011;23231;52.358;4.926;2023-04-24T18:57:01;7.75;;;2.90;;
37349;SDS011;23231;52.358;4.926;2023-04-24T19:02:02;12.35;;;2.80;;
37349;SDS011;23231;52.358;4.926;2023-04-24T19:07:02;11.05;;;3.30;;
37349;SDS011;23231;52.358;4.926;2023-04-24T19:12:02;9.82;;;2.95;;
37349;SDS011;23231;52.358;4.926;2023-04-24T19:17:05;8.25;;;3.58;;
37349;SDS011;23231;52.358;4.926;2023-04-24T19:22:07;8.40;;;2.72;;
37349;SDS011;23231;52.358;4.926;2023-04-24T19:27:07;15.07;;;3.40;;
37349;SDS011;23231;52.358;4.926;2023-04-24T19:32:08;11.10;;;3.30;;
37349;SDS011;23231;52.358;4.926;2023-04-24T19:37:08;12.55;;;3.20;;
37349;SDS011;23231;52.358;4.926;2023-04-24T19:42:09;11.93;;;3.17;;
37349;SDS011;23231;52.358;4.926;2023-04-24T19:47:09;15.48;;;3.47;;
37349;SDS011;23231;52.358;4.926;2023-04-24T19:52:09;10.63;;;3.50;;
37349;SDS011;23231;52.358;4.926;2023-04-24T19:57:10;12.00;;;2.88;;
37349;SDS011;23231;52.358;4.926;2023-04-24T20:02:10;16.25;;;2.75;;
37349;SDS011;23231;52.358;4.926;2023-04-24T20:07:12;14.70;;;3.13;;
37349;SDS011;23231;52.358;4.926;2023-04-24T20:12:12;9.93;;;2.10;;
37349;SDS011;23231;52.358;4.926;2023-04-24T20:17:13;7.40;;;2.00;;
37349;SDS011;23231;52.358;4.926;2023-04-24T20:22:14;13.40;;;2.60;;
37349;SDS011;23231;52.358;4.926;2023-04-24T20:27:15;10.18;;;2.58;;
37349;SDS011;23231;52.358;4.926;2023-04-24T20:32:16;13.55;;;3.22;;
37349;SDS011;23231;52.358;4.926;2023-04-24T20:37:16;14.80;;;2.92;;
37349;SDS011;23231;52.358;4.926;2023-04-24T20:42:17;13.15;;;2.88;;
37349;SDS011;23231;52.358;4.926;2023-04-24T20:47:18;9.40;;;3.25;;
37349;SDS011;23231;52.358;4.926;2023-04-24T20:52:18;7.50;;;2.70;;
37349;SDS011;23231;52.358;4.926;2023-04-24T20:57:19;12.95;;;4.00;;
37349;SDS011;23231;52.358;4.926;2023-04-24T21:02:20;16.77;;;4.60;;
37349;SDS011;23231;52.358;4.926;2023-04-24T21:07:20;17.15;;;4.85;;
37349;SDS011;23231;52.358;4.926;2023-04-24T21:12:20;18.02;;;4.70;;
37349;SDS011;23231;52.358;4.926;2023-04-24T21:17:21;19.33;;;4.95;;
37349;SDS011;23231;52.358;4.926;2023-04-24T21:22:21;18.10;;;5.05;;
37349;SDS011;23231;52.358;4.926;2023-04-24T21:27:22;25.45;;;5.55;;
37349;SDS011;23231;52.358;4.926;2023-04-24T21:32:22;28.65;;;6.03;;
37349;SDS011;23231;52.358;4.926;2023-04-24T21:37:22;18.42;;;5.00;;
37349;SDS011;23231;52.358;4.926;2023-04-24T21:42:23;19.67;;;5.20;;
37349;SDS011;23231;52.358;4.926;2023-04-24T21:47:24;19.23;;;4.30;;
37349;SDS011;23231;52.358;4.926;2023-04-24T21:52:24;18.73;;;4.90;;
37349;SDS011;23231;52.358;4.926;2023-04-24T21:57:25;18.50;;;4.47;;
37349;SDS011;23231;52.358;4.926;2023-04-24T22:02:25;29.60;;;5.05;;
37349;SDS011;23231;52.358;4.926;2023-04-24T22:07:25;28.77;;;5.35;;
37349;SDS011;23231;52.358;4.926;2023-04-24T22:12:26;18.88;;;4.85;;
37349;SDS011;23231;52.358;4.926;2023-04-24T22:17:26;24.85;;;5.72;;
37349;SDS011;23231;52.358;4.926;2023-04-24T22:22:27;27.33;;;6.23;;
37349;SDS011;23231;52.358;4.926;2023-04-24T22:27:27;23.87;;;5.87;;
37349;SDS011;23231;52.358;4.926;2023-04-24T22:32:28;18.03;;;5.03;;
37349;SDS011;23231;52.358;4.926;2023-04-24T22:37:30;22.15;;;5.50;;
37349;SDS011;23231;52.358;4.926;2023-04-24T22:42:31;22.45;;;5.75;;
37349;SDS011;23231;52.358;4.926;2023-04-24T22:47:31;20.73;;;5.55;;
37349;SDS011;23231;52.358;4.926;2023-04-24T22:52:32;23.90;;;5.22;;
37349;SDS011;23231;52.358;4.926;2023-04-24T22:57:35;31.40;;;6.25;;
37349;SDS011;23231;52.358;4.926;2023-04-24T23:02:39;20.87;;;5.47;;
37349;SDS011;23231;52.358;4.926;2023-04-24T23:07:40;25.00;;;5.72;;
37349;SDS011;23231;52.358;4.926;2023-04-24T23:12:41;20.67;;;5.10;;
37349;SDS011;23231;52.358;4.926;2023-04-24T23:17:41;18.23;;;4.90;;
37349;SDS011;23231;52.358;4.926;2023-04-24T23:22:42;21.67;;;4.88;;
37349;SDS011;23231;52.358;4.926;2023-04-24T23:27:43;21.40;;;4.38;;
37349;SDS011;23231;52.358;4.926;2023-04-24T23:32:43;29.63;;;5.50;;
37349;SDS011;23231;52.358;4.926;2023-04-24T23:37:43;16.53;;;3.90;;
37349;SDS011;23231;52.358;4.926;2023-04-24T23:42:44;18.60;;;4.37;;
37349;SDS011;23231;52.358;4.926;2023-04-24T23:47:45;19.53;;;4.63;;
37349;SDS011;23231;52.358;4.926;2023-04-24T23:52:45;17.17;;;4.67;;
37349;SDS011;23231;52.358;4.926;2023-04-24T23:57:46;16.80;;;4.33;;
